Santa Cruz do Capibaribe, Brazil
Current Conditions -  °F | °C
As of 3:00 PM on Thursday 29 Jan 2015 (Local Time) from SBKG Reporting Station
Broken Clouds Broken Clouds  
Wind Chill: 84°   Ceiling: 4000
Heat Index: 87°   Visibility: 6mi
Dew Point: 68°   Wind: 12mph
Humidity: 58%   Direction: 120°ESE
Pressure: 29.88"   Gusts: NA
Location:  7.96°S, 36.2°W
Report Text: SBKG 291800Z 12010KT 9999 BKN040 29/20 Q1012
Loading
Personal Weather Stations






























Interactive Weather Map New forecast layout! Learn more

10-Day Weather Forecast

Advertisements
Track Severe Weather on mobile